Time;durP1;ratioP1;P1;durP2;ratioP2;P2;SDS_P1;SDS_P2;PMS_P1;PMS_P2;Temp;Humidity;BMP_temperature;BMP_pressure;BME280_temperature;BME280_humidity;BME280_pressure;Samples;Min_cycle;Max_cycle;Signal;HPM_P1;HPM_P2
2023/08/19 00:00:14;;;;;;;24.70;20.83;;;;;;;23.89;74.94;101119.00;4983094;28;20022;-72
2023/08/19 00:02:40;;;;;;;23.35;19.88;;;;;;;23.79;75.87;101112.75;4978117;28;20026;-74
2023/08/19 00:05:06;;;;;;;24.02;20.85;;;;;;;23.72;75.65;101109.72;4991946;28;20109;-74
2023/08/19 00:07:31;;;;;;;25.55;20.58;;;;;;;23.73;76.09;101103.34;4995565;28;20116;-74
2023/08/19 00:09:56;;;;;;;25.50;21.90;;;;;;;23.72;76.72;101104.34;4993022;28;20030;-74
2023/08/19 00:12:22;;;;;;;22.85;20.45;;;;;;;23.76;76.63;101102.22;4990248;28;20660;-74
2023/08/19 00:14:49;;;;;;;25.73;21.73;;;;;;;23.73;78.24;101106.03;4987771;28;20025;-74
2023/08/19 00:17:16;;;;;;;24.83;21.83;;;;;;;23.77;77.43;101104.75;4982224;28;21666;-74
2023/08/19 00:19:41;;;;;;;27.00;22.20;;;;;;;23.78;77.82;101097.50;4981058;28;20053;-74
2023/08/19 00:22:06;;;;;;;27.30;23.40;;;;;;;23.72;79.17;101101.63;4995244;28;20033;-74
2023/08/19 00:24:32;;;;;;;30.70;23.23;;;;;;;23.71;79.32;101099.09;4988651;28;20031;-74
2023/08/19 00:26:59;;;;;;;27.60;22.77;;;;;;;23.66;78.81;101102.22;4989547;28;20027;-74
2023/08/19 00:29:25;;;;;;;30.17;24.25;;;;;;;23.72;78.60;101109.72;4988627;28;20045;-74
2023/08/19 00:31:50;;;;;;;27.27;22.48;;;;;;;23.69;77.68;101104.63;4985278;28;20038;-74
2023/08/19 00:34:15;;;;;;;25.92;22.60;;;;;;;23.70;78.21;101109.03;4986169;28;20033;-74
2023/08/19 00:36:41;;;;;;;30.17;25.27;;;;;;;23.61;79.51;101108.00;4983385;28;20026;-74
2023/08/19 00:39:06;;;;;;;31.08;24.85;;;;;;;23.64;79.19;101112.28;4986082;28;20036;-74
2023/08/19 00:41:33;;;;;;;31.67;24.88;;;;;;;23.66;78.74;101104.91;4986195;28;20041;-74
2023/08/19 00:43:58;;;;;;;26.35;23.38;;;;;;;23.72;78.02;101098.94;4982649;28;20040;-74
2023/08/19 00:46:24;;;;;;;29.38;21.98;;;;;;;23.73;77.35;101105.19;4983177;28;20026;-74
2023/08/19 00:48:50;;;;;;;27.52;22.98;;;;;;;23.71;77.89;101108.03;4986965;28;20104;-74
2023/08/19 00:51:17;;;;;;;25.23;21.58;;;;;;;23.65;77.39;101101.34;4989746;28;20508;-74
2023/08/19 00:53:42;;;;;;;24.83;22.13;;;;;;;23.58;77.95;101107.41;4992949;28;20116;-74
2023/08/19 00:56:08;;;;;;;26.15;22.48;;;;;;;23.58;78.24;101108.25;4984908;28;20065;-74
2023/08/19 00:58:33;;;;;;;28.17;23.52;;;;;;;23.63;78.76;101106.00;4989817;28;20045;-74
2023/08/19 01:00:58;;;;;;;28.23;24.33;;;;;;;23.62;78.65;101101.59;4985786;28;20037;-73
2023/08/19 01:03:24;;;;;;;26.63;22.92;;;;;;;23.65;78.80;101100.50;4993364;28;20041;-74
2023/08/19 01:06:06;;;;;;;28.95;24.33;;;;;;;23.72;78.79;101100.78;5019653;23;20463;-67
2023/08/19 01:08:46;;;;;;;27.67;23.42;;;;;;;23.74;78.53;101104.22;5017655;28;20388;-66
2023/08/19 01:11:33;;;;;;;27.33;23.10;;;;;;;23.70;78.53;101094.69;5009254;28;20025;-66
2023/08/19 01:14:14;;;;;;;28.50;23.85;;;;;;;23.68;78.94;101094.81;5001152;28;20040;-66
2023/08/19 01:16:43;;;;;;;26.17;22.50;;;;;;;23.66;77.83;101092.25;5002817;28;20028;-66
2023/08/19 01:19:19;;;;;;;27.77;23.23;;;;;;;23.65;78.08;101098.66;4999996;28;20034;-66
2023/08/19 01:21:45;;;;;;;27.05;22.70;;;;;;;23.62;79.15;101090.78;5007483;28;20476;-66
2023/08/19 01:24:12;;;;;;;24.13;21.27;;;;;;;23.66;78.50;101091.41;5004902;28;20088;-66
2023/08/19 01:26:38;;;;;;;25.55;22.52;;;;;;;23.71;79.10;101093.69;5003644;28;20040;-67
2023/08/19 01:29:03;;;;;;;26.30;22.42;;;;;;;23.72;79.26;101090.00;5005208;28;20025;-66
2023/08/19 01:31:28;;;;;;;25.00;21.23;;;;;;;23.74;78.58;101077.22;5004122;28;20391;-66
2023/08/19 01:33:54;;;;;;;26.02;22.38;;;;;;;23.73;78.66;101070.09;5009690;28;20436;-66
2023/08/19 01:36:30;;;;;;;23.77;21.17;;;;;;;23.75;78.60;101077.06;5003985;28;20022;-66
2023/08/19 01:39:08;;;;;;;27.38;21.90;;;;;;;23.78;79.24;101073.22;5006872;28;20037;-66
2023/08/19 01:41:34;;;;;;;26.15;22.42;;;;;;;23.71;79.75;101067.53;5004808;28;20033;-66
2023/08/19 01:44:01;;;;;;;30.45;22.58;;;;;;;23.74;80.05;101061.03;5008292;28;20046;-66
2023/08/19 01:46:26;;;;;;;24.63;21.17;;;;;;;23.76;79.40;101061.72;5009551;28;20072;-66
2023/08/19 01:48:52;;;;;;;26.52;23.13;;;;;;;23.66;80.07;101054.47;5001598;28;20432;-67
2023/08/19 01:51:18;;;;;;;23.98;20.73;;;;;;;23.70;79.67;101049.66;4998745;28;20061;-66
2023/08/19 01:53:43;;;;;;;27.60;20.88;;;;;;;23.71;79.06;101058.59;5015387;28;20033;-66
2023/08/19 01:56:09;;;;;;;25.55;21.48;;;;;;;23.76;79.46;101061.72;5004803;28;20397;-66
2023/08/19 01:58:35;;;;;;;22.23;19.75;;;;;;;23.73;80.00;101054.75;5015529;28;20552;-66
2023/08/19 02:01:00;;;;;;;23.35;20.83;;;;;;;23.73;79.79;101057.44;4998293;28;20022;-66
2023/08/19 02:03:26;;;;;;;25.55;21.15;;;;;;;23.72;79.93;101057.59;5009063;28;20068;-66
2023/08/19 02:05:51;;;;;;;20.80;18.55;;;;;;;23.74;79.51;101055.63;5008288;28;20065;-67
2023/08/19 02:08:17;;;;;;;26.02;21.13;;;;;;;23.71;79.71;101051.34;5013349;28;20035;-66
2023/08/19 02:10:42;;;;;;;21.33;19.20;;;;;;;23.74;79.15;101056.47;5011728;28;20400;-66
2023/08/19 02:13:08;;;;;;;22.60;20.30;;;;;;;23.74;79.44;101053.78;5014776;28;20034;-66
2023/08/19 02:15:34;;;;;;;23.85;20.92;;;;;;;23.78;79.11;101048.91;5011215;28;20123;-66
2023/08/19 02:17:59;;;;;;;24.08;20.13;;;;;;;23.77;79.44;101042.66;5009890;28;20033;-66
2023/08/19 02:20:24;;;;;;;21.92;19.17;;;;;;;23.73;79.42;101043.94;5014762;28;20036;-67
2023/08/19 02:22:50;;;;;;;22.77;20.35;;;;;;;23.72;79.21;101039.53;5009594;28;20030;-66
2023/08/19 02:25:15;;;;;;;24.00;19.70;;;;;;;23.72;79.32;101041.41;5011631;28;20033;-66
2023/08/19 02:27:43;;;;;;;21.60;19.33;;;;;;;23.71;79.37;101031.59;5016007;28;20040;-66
2023/08/19 02:30:10;;;;;;;22.63;19.60;;;;;;;23.68;79.58;101035.41;5007189;28;20073;-66
2023/08/19 02:32:35;;;;;;;23.05;18.98;;;;;;;23.66;79.37;101040.13;5015733;28;20029;-66
2023/08/19 02:35:01;;;;;;;21.20;17.92;;;;;;;23.65;79.41;101030.31;5020243;28;20608;-67
2023/08/19 02:37:26;;;;;;;21.45;19.20;;;;;;;23.62;79.98;101033.25;5007877;28;20065;-67
2023/08/19 02:39:51;;;;;;;21.35;19.05;;;;;;;23.63;79.93;101032.25;5008494;28;20388;-66
2023/08/19 02:42:17;;;;;;;21.80;19.20;;;;;;;23.63;80.01;101032.25;5011427;28;20033;-66
2023/08/19 02:44:43;;;;;;;22.05;18.45;;;;;;;23.58;79.42;101007.53;5007659;28;20036;-67
2023/08/19 02:47:09;;;;;;;23.42;18.60;;;;;;;23.59;78.98;101020.88;5008877;28;20389;-67
2023/08/19 02:49:36;;;;;;;21.77;18.23;;;;;;;23.64;79.11;101012.41;5014786;28;20033;-67
2023/08/19 02:52:02;;;;;;;20.02;17.45;;;;;;;23.65;79.16;101025.78;5009135;28;20025;-67
2023/08/19 02:54:27;;;;;;;20.25;18.05;;;;;;;23.76;79.33;101021.22;5016251;28;20044;-66
2023/08/19 02:56:53;;;;;;;20.37;17.60;;;;;;;23.82;79.03;101016.09;5004069;28;20033;-67
2023/08/19 02:59:18;;;;;;;23.15;17.75;;;;;;;23.85;78.69;101020.38;5009505;28;20391;-66
2023/08/19 03:01:43;;;;;;;20.70;17.90;;;;;;;23.88;78.52;101020.09;5010172;28;20061;-67
2023/08/19 03:04:09;;;;;;;19.75;17.50;;;;;;;23.84;79.07;101019.50;5017886;28;20026;-67
2023/08/19 03:06:34;;;;;;;18.35;16.55;;;;;;;23.79;78.92;101015.53;5019190;28;20203;-67
2023/08/19 03:08:59;;;;;;;19.77;17.35;;;;;;;23.77;79.12;101017.53;5017998;28;20021;-66
2023/08/19 03:11:25;;;;;;;20.27;16.95;;;;;;;23.74;79.15;101021.38;5017547;28;20026;-67
2023/08/19 03:13:50;;;;;;;20.55;17.33;;;;;;;23.79;79.01;101019.09;4988355;28;20036;-67
2023/08/19 03:16:16;;;;;;;20.40;17.23;;;;;;;23.77;78.70;101018.38;5003344;28;20034;-66
2023/08/19 03:18:42;;;;;;;18.80;16.80;;;;;;;23.73;79.33;101013.41;5012428;28;20025;-67
2023/08/19 03:21:10;;;;;;;18.05;16.15;;;;;;;23.75;79.42;101024.91;5010017;28;20041;-67
2023/08/19 03:23:35;;;;;;;20.02;17.17;;;;;;;23.73;79.24;101013.41;5006887;28;20030;-67
2023/08/19 03:26:01;;;;;;;22.02;16.67;;;;;;;23.71;79.82;101024.34;5007341;28;20024;-67
2023/08/19 03:28:26;;;;;;;18.20;16.38;;;;;;;23.66;79.56;101015.81;5009121;28;20423;-67
2023/08/19 03:30:51;;;;;;;20.73;16.05;;;;;;;23.59;79.71;101007.38;5003190;28;20354;-67
2023/08/19 03:33:17;;;;;;;19.40;16.33;;;;;;;23.60;79.64;101005.56;5016894;28;20025;-67
2023/08/19 03:35:42;;;;;;;18.67;16.77;;;;;;;23.53;80.59;101013.38;5020960;28;20487;-67
2023/08/19 03:38:08;;;;;;;18.02;15.82;;;;;;;23.54;79.88;101009.66;5015146;28;20433;-67
2023/08/19 03:40:33;;;;;;;18.35;16.27;;;;;;;23.55;80.07;101015.91;5021236;28;20037;-67
2023/08/19 03:42:58;;;;;;;19.15;16.63;;;;;;;23.56;80.03;101004.16;5015755;28;20596;-67
2023/08/19 03:45:23;;;;;;;18.33;15.77;;;;;;;23.58;79.30;101008.38;5007944;28;20147;-67
2023/08/19 03:47:49;;;;;;;19.65;16.42;;;;;;;23.52;80.61;101018.91;5006924;28;20492;-67
2023/08/19 03:50:14;;;;;;;17.45;15.65;;;;;;;23.54;79.85;101017.75;5014316;28;20036;-67
2023/08/19 03:52:39;;;;;;;18.23;16.38;;;;;;;23.57;80.35;101024.75;5007779;28;20029;-67
2023/08/19 03:55:06;;;;;;;16.95;15.15;;;;;;;23.59;79.71;101017.34;5017191;28;20119;-67
2023/08/19 03:57:31;;;;;;;17.48;15.68;;;;;;;23.63;78.72;101016.06;5021676;28;20044;-66
2023/08/19 03:59:56;;;;;;;16.45;14.70;;;;;;;23.65;79.23;101016.81;5008972;28;20025;-67
2023/08/19 04:02:22;;;;;;;17.80;15.43;;;;;;;23.62;79.92;101012.50;5009864;28;20040;-67
2023/08/19 04:05:04;;;;;;;16.35;14.65;;;;;;;23.62;79.76;101017.06;4991902;28;20036;-67
2023/08/19 04:07:30;;;;;;;18.88;14.15;;;;;;;23.57;79.32;101016.63;5008709;28;20520;-67
2023/08/19 04:09:56;;;;;;;20.08;14.60;;;;;;;23.54;79.96;101019.63;5015598;28;20116;-67
2023/08/19 04:12:25;;;;;;;15.73;13.82;;;;;;;23.55;79.45;101024.00;5006949;28;20053;-67
2023/08/19 04:14:50;;;;;;;22.25;14.40;;;;;;;23.56;79.48;101023.03;5010790;28;20041;-66
2023/08/19 04:17:16;;;;;;;16.10;14.40;;;;;;;23.55;80.07;101011.41;5001035;28;20108;-67
2023/08/19 04:19:43;;;;;;;17.02;12.82;;;;;;;23.55;79.27;101018.63;5011631;28;20033;-67
2023/08/19 04:22:14;;;;;;;15.88;13.85;;;;;;;23.56;79.49;101020.34;5015771;28;20535;-67
2023/08/19 04:24:39;;;;;;;17.40;13.50;;;;;;;23.57;79.04;101017.50;5005144;28;20503;-67
2023/08/19 04:27:05;;;;;;;15.38;13.52;;;;;;;23.58;78.62;101027.28;5010882;28;20026;-67
2023/08/19 04:29:32;;;;;;;19.92;13.90;;;;;;;23.59;79.34;101028.97;5002486;28;20038;-66
2023/08/19 04:32:00;;;;;;;16.38;13.48;;;;;;;23.59;78.82;101031.69;5003093;28;20021;-66
2023/08/19 04:34:25;;;;;;;14.50;12.95;;;;;;;23.61;79.19;101037.81;5007445;28;20037;-66
2023/08/19 04:36:51;;;;;;;14.82;12.75;;;;;;;23.64;78.39;101034.00;5013043;28;20412;-66
2023/08/19 04:39:16;;;;;;;15.02;13.52;;;;;;;23.63;79.44;101032.25;5011516;28;20037;-66
2023/08/19 04:41:41;;;;;;;17.75;12.95;;;;;;;23.64;78.87;101026.78;5006821;28;20065;-66
2023/08/19 04:44:06;;;;;;;14.77;12.75;;;;;;;23.65;79.06;101025.78;5014344;28;20037;-66
2023/08/19 04:46:32;;;;;;;16.88;12.73;;;;;;;23.62;79.09;101044.06;5012039;28;20022;-66
2023/08/19 04:48:57;;;;;;;20.65;13.57;;;;;;;23.62;78.84;101039.50;5014022;28;20117;-66
2023/08/19 04:51:22;;;;;;;19.73;14.38;;;;;;;23.63;78.70;101041.22;5014540;28;20037;-66
2023/08/19 04:53:48;;;;;;;13.80;11.93;;;;;;;23.62;78.10;101038.66;5000642;28;20041;-66
2023/08/19 04:56:13;;;;;;;15.02;12.45;;;;;;;23.65;78.51;101038.41;5016826;28;20558;-67
2023/08/19 04:58:39;;;;;;;14.57;12.15;;;;;;;23.63;79.25;101034.97;5011957;28;20034;-67
2023/08/19 05:01:04;;;;;;;14.05;11.85;;;;;;;23.62;78.89;101038.66;5015765;28;20060;-67
2023/08/19 05:03:29;;;;;;;16.67;11.90;;;;;;;23.66;78.96;101030.16;5007775;28;20038;-67
2023/08/19 05:05:54;;;;;;;13.07;11.77;;;;;;;23.61;80.16;101021.63;5020695;28;20088;-67
2023/08/19 05:08:20;;;;;;;12.63;11.33;;;;;;;23.64;78.84;101023.19;5018827;28;20044;-67
2023/08/19 05:10:45;;;;;;;17.52;12.73;;;;;;;23.62;79.14;101023.31;5013267;28;20641;-67
2023/08/19 05:13:11;;;;;;;13.25;11.95;;;;;;;23.75;78.30;101031.16;5011370;28;20052;-67
2023/08/19 05:15:37;;;;;;;17.02;11.57;;;;;;;23.84;76.88;101033.00;5008254;28;20030;-67
2023/08/19 05:18:04;;;;;;;14.07;11.35;;;;;;;23.79;78.24;101035.28;5000414;28;20152;-67
2023/08/19 05:20:29;;;;;;;18.50;11.77;;;;;;;23.81;78.30;101036.00;5013596;28;20037;-67
2023/08/19 05:22:54;;;;;;;13.07;11.68;;;;;;;23.86;77.58;101044.50;5010280;28;20021;-67
2023/08/19 05:25:19;;;;;;;12.43;10.95;;;;;;;23.89;77.00;101041.53;5004169;28;20029;-67
2023/08/19 05:27:45;;;;;;;16.55;11.15;;;;;;;24.11;76.88;101036.84;5011947;28;20465;-67
2023/08/19 05:30:11;;;;;;;12.80;10.73;;;;;;;24.17;76.25;101045.19;5005935;28;20033;-67
2023/08/19 05:32:36;;;;;;;12.32;10.65;;;;;;;24.09;75.93;101055.88;5003868;28;20026;-66
2023/08/19 05:35:02;;;;;;;14.95;10.77;;;;;;;24.11;76.00;101048.50;5003198;28;20419;-67
2023/08/19 05:37:28;;;;;;;13.85;11.25;;;;;;;24.10;76.17;101059.41;5018661;28;20037;-66
2023/08/19 05:39:53;;;;;;;14.60;10.05;;;;;;;24.13;76.85;101056.44;5017249;28;20404;-67
2023/08/19 05:42:18;;;;;;;15.00;10.40;;;;;;;24.12;76.75;101049.34;5011535;28;20026;-67
2023/08/19 05:44:44;;;;;;;11.95;10.20;;;;;;;24.11;76.83;101050.34;5013020;28;20056;-67
2023/08/19 05:47:09;;;;;;;11.05;9.85;;;;;;;24.15;76.46;101052.63;5009332;28;20021;-67
2023/08/19 05:49:35;;;;;;;13.43;10.13;;;;;;;24.14;76.19;101053.59;5006996;28;20698;-67
2023/08/19 05:52:00;;;;;;;13.43;9.70;;;;;;;24.18;75.86;101048.75;5009420;28;20034;-66
2023/08/19 05:54:25;;;;;;;14.00;10.18;;;;;;;24.20;76.26;101057.56;5008187;28;20116;-66
2023/08/19 05:56:50;;;;;;;11.07;9.30;;;;;;;24.29;76.74;101058.53;4994527;28;20022;-66
2023/08/19 05:59:16;;;;;;;10.90;9.70;;;;;;;24.30;78.10;101052.16;5015875;28;20369;-66
2023/08/19 06:01:41;;;;;;;13.00;10.70;;;;;;;24.31;76.96;101059.25;5015866;28;20288;-66
2023/08/19 06:04:06;;;;;;;11.33;10.13;;;;;;;24.32;77.17;101056.41;5004615;28;20046;-66
2023/08/19 06:06:32;;;;;;;15.60;9.90;;;;;;;24.33;76.74;101057.25;5013116;28;20288;-66
2023/08/19 06:08:57;;;;;;;11.25;10.15;;;;;;;24.35;76.01;101047.16;5014534;28;20041;-66
2023/08/19 06:11:22;;;;;;;13.13;9.40;;;;;;;24.36;75.58;101055.16;4994095;28;20228;-66
2023/08/19 06:13:47;;;;;;;15.13;10.55;;;;;;;24.36;75.03;101065.97;5005380;28;20025;-66
2023/08/19 06:16:13;;;;;;;10.63;9.60;;;;;;;24.43;75.46;101072.50;5007556;28;20033;-66
2023/08/19 06:18:39;;;;;;;11.18;9.75;;;;;;;24.49;74.49;101064.81;5009592;28;20037;-66
2023/08/19 06:21:04;;;;;;;14.35;9.68;;;;;;;24.52;75.49;101062.63;5008685;28;20088;-66
2023/08/19 06:23:30;;;;;;;11.95;9.48;;;;;;;24.60;73.92;101075.44;5012134;28;20045;-66
2023/08/19 06:25:55;;;;;;;15.80;9.98;;;;;;;24.58;74.95;101072.03;5008144;28;20026;-66
2023/08/19 06:28:21;;;;;;;10.00;9.00;;;;;;;24.66;74.29;101081.09;5005945;28;20028;-66
2023/08/19 06:30:48;;;;;;;15.05;9.13;;;;;;;24.73;73.95;101080.53;5006074;28;20036;-66
2023/08/19 06:33:14;;;;;;;10.10;8.90;;;;;;;24.85;74.57;101091.00;5001258;28;20033;-66
2023/08/19 06:35:40;;;;;;;12.30;9.23;;;;;;;24.96;73.44;101097.25;5016204;28;20032;-66
2023/08/19 06:38:14;;;;;;;12.70;8.90;;;;;;;25.11;72.74;101101.19;5009136;28;20049;-66
2023/08/19 06:40:55;;;;;;;13.00;8.90;;;;;;;25.27;74.02;101101.38;5009210;28;20468;-66
2023/08/19 06:43:23;;;;;;;13.30;9.65;;;;;;;25.35;71.61;101106.88;5012718;28;20049;-66
2023/08/19 06:45:49;;;;;;;9.00;8.00;;;;;;;25.49;73.59;101105.53;5011172;28;20022;-66
2023/08/19 06:48:15;;;;;;;11.38;8.68;;;;;;;25.60;70.68;101113.44;5004036;28;20036;-66
2023/08/19 06:50:41;;;;;;;11.73;9.02;;;;;;;25.74;69.97;101120.19;5009987;28;20649;-66
2023/08/19 06:53:09;;;;;;;12.82;9.00;;;;;;;25.77;70.67;101124.47;5006824;28;20100;-66
2023/08/19 06:55:39;;;;;;;9.80;8.80;;;;;;;25.77;70.75;101119.91;5009873;28;20029;-66
2023/08/19 06:58:11;;;;;;;10.25;9.05;;;;;;;25.79;69.53;101117.91;5011151;28;20041;-66
2023/08/19 07:00:38;;;;;;;10.23;7.93;;;;;;;25.86;69.65;101110.00;5004072;28;20425;-66
2023/08/19 07:03:04;;;;;;;9.35;8.32;;;;;;;25.93;68.77;101122.78;5004290;28;20694;-67
2023/08/19 07:05:30;;;;;;;13.05;8.15;;;;;;;26.05;67.95;101123.41;5007318;28;20096;-67
2023/08/19 07:07:57;;;;;;;10.02;8.13;;;;;;;26.05;67.58;101119.84;5004707;28;20120;-67
2023/08/19 07:10:23;;;;;;;13.10;8.15;;;;;;;26.10;68.42;101125.63;5009003;28;20040;-67
2023/08/19 07:12:48;;;;;;;9.18;7.78;;;;;;;26.12;68.64;101123.66;5001013;28;20676;-67
2023/08/19 07:15:14;;;;;;;10.93;8.18;;;;;;;26.19;67.53;101127.41;5003944;28;20079;-67
2023/08/19 07:17:48;;;;;;;9.27;8.32;;;;;;;26.25;66.74;101125.94;5010130;28;20038;-67
2023/08/19 07:20:20;;;;;;;10.25;7.90;;;;;;;26.36;66.74;101123.00;5009576;28;20025;-67
2023/08/19 07:22:47;;;;;;;11.80;8.45;;;;;;;26.48;65.19;101120.91;4999393;28;20034;-67
2023/08/19 07:25:13;;;;;;;8.85;7.57;;;;;;;26.58;66.04;101127.94;4998869;28;20022;-67
2023/08/19 07:27:41;;;;;;;11.85;8.07;;;;;;;26.82;65.11;101121.81;5009269;28;20436;-67
2023/08/19 07:30:07;;;;;;;10.93;8.10;;;;;;;27.04;63.67;101125.81;5009755;28;20029;-67
2023/08/19 07:32:33;;;;;;;11.00;7.60;;;;;;;27.28;62.67;101129.69;5000916;28;20030;-67
2023/08/19 07:34:59;;;;;;;10.25;7.65;;;;;;;27.48;63.08;101138.44;5005792;28;20042;-67
2023/08/19 07:37:25;;;;;;;7.88;6.97;;;;;;;27.56;61.64;101141.16;5014946;28;20120;-67
2023/08/19 07:39:53;;;;;;;9.10;8.07;;;;;;;27.68;62.91;101129.00;5012008;28;20500;-67
2023/08/19 07:42:18;;;;;;;8.10;7.15;;;;;;;27.69;61.15;101145.13;5003543;28;20030;-67
2023/08/19 07:44:43;;;;;;;9.27;7.63;;;;;;;27.75;61.49;101157.25;5013238;28;20350;-67
2023/08/19 07:47:09;;;;;;;9.47;7.50;;;;;;;27.78;60.46;101162.31;5011777;28;20513;-67
2023/08/19 07:49:34;;;;;;;11.23;8.68;;;;;;;27.82;60.93;101163.69;5013586;28;20280;-67
2023/08/19 07:51:59;;;;;;;9.80;7.95;;;;;;;27.99;60.90;101152.88;5009517;28;20719;-67
2023/08/19 07:54:25;;;;;;;8.88;7.70;;;;;;;28.18;60.19;101158.00;5005080;28;20092;-68
2023/08/19 07:56:53;;;;;;;8.27;7.30;;;;;;;28.27;61.20;101169.72;5011618;28;20014;-67
2023/08/19 07:59:19;;;;;;;8.48;7.55;;;;;;;28.05;60.77;101173.94;5017083;28;20033;-67
2023/08/19 08:01:44;;;;;;;8.57;7.28;;;;;;;27.97;61.59;101175.63;4995674;28;20080;-67
2023/08/19 08:04:09;;;;;;;10.15;7.15;;;;;;;27.86;60.90;101175.94;5005761;28;20093;-67
2023/08/19 08:06:35;;;;;;;10.37;7.60;;;;;;;27.74;62.10;101171.81;5002573;28;20492;-67
2023/08/19 08:09:02;;;;;;;14.00;7.72;;;;;;;27.63;62.37;101164.81;5012679;28;20320;-67
2023/08/19 08:11:27;;;;;;;10.65;7.93;;;;;;;27.64;63.14;101157.50;4990233;28;20385;-67
2023/08/19 08:13:52;;;;;;;9.80;8.05;;;;;;;27.65;62.15;101159.19;5004480;28;20022;-67
2023/08/19 08:16:18;;;;;;;10.00;7.80;;;;;;;27.69;62.81;101172.28;5010110;28;20083;-67
2023/08/19 08:18:43;;;;;;;10.32;8.10;;;;;;;27.70;62.39;101171.28;5009280;28;20824;-67
2023/08/19 08:21:08;;;;;;;9.68;7.90;;;;;;;27.73;63.36;101180.16;5008487;28;20040;-67
2023/08/19 08:23:33;;;;;;;11.77;8.50;;;;;;;27.64;62.42;101173.81;5005507;28;20025;-67
2023/08/19 08:25:59;;;;;;;9.45;8.30;;;;;;;27.50;62.88;101174.44;5013011;28;20033;-67
2023/08/19 08:28:24;;;;;;;8.87;7.73;;;;;;;27.50;63.10;101180.72;5007117;28;20025;-67
2023/08/19 08:30:49;;;;;;;11.18;8.93;;;;;;;27.55;63.70;101185.66;5006077;28;20346;-67
2023/08/19 08:33:15;;;;;;;10.33;8.83;;;;;;;27.56;63.91;101200.94;5005043;28;20036;-68
2023/08/19 08:35:40;;;;;;;12.48;9.57;;;;;;;27.57;64.25;101206.22;5010055;28;20341;-67
2023/08/19 08:38:05;;;;;;;12.65;9.85;;;;;;;27.50;64.61;101213.31;4999523;28;20396;-67
2023/08/19 08:40:31;;;;;;;13.05;9.25;;;;;;;27.43;64.98;101210.41;5007373;28;20064;-67
2023/08/19 08:42:57;;;;;;;11.82;8.98;;;;;;;27.35;65.56;101191.34;5010318;28;20113;-67
2023/08/19 08:45:25;;;;;;;13.00;9.32;;;;;;;27.32;66.06;101226.94;5008227;28;20148;-67
2023/08/19 08:47:51;;;;;;;11.20;9.50;;;;;;;27.31;66.74;101224.41;5005529;28;20076;-67
2023/08/19 08:50:17;;;;;;;13.05;9.50;;;;;;;27.25;66.84;101234.06;5007800;28;20032;-67
2023/08/19 08:52:42;;;;;;;14.98;9.98;;;;;;;27.27;67.16;101215.72;5011504;28;20447;-66
2023/08/19 08:55:09;;;;;;;13.45;9.88;;;;;;;27.17;67.48;101229.41;5009151;28;20499;-67
2023/08/19 08:57:35;;;;;;;10.48;9.35;;;;;;;27.17;67.11;101220.44;5008159;28;20511;-67
2023/08/19 09:00:00;;;;;;;11.95;9.82;;;;;;;27.16;67.17;101238.56;5010049;28;20030;-67
2023/08/19 09:02:28;;;;;;;12.25;9.40;;;;;;;27.15;66.26;101242.31;5009735;28;20034;-67
2023/08/19 09:04:53;;;;;;;11.52;9.73;;;;;;;27.27;66.87;101251.03;5000199;28;20030;-67
2023/08/19 09:07:30;;;;;;;10.00;8.77;;;;;;;27.37;66.29;101249.06;5008671;28;20026;-67
2023/08/19 09:09:58;;;;;;;14.02;10.50;;;;;;;27.40;66.04;101256.88;5009988;28;20029;-66
2023/08/19 09:12:26;;;;;;;11.23;9.80;;;;;;;27.48;65.88;101260.66;5008227;28;20038;-66
2023/08/19 09:14:54;;;;;;;13.85;10.07;;;;;;;27.57;65.12;101267.84;5008948;28;20046;-66
2023/08/19 09:17:20;;;;;;;14.27;10.13;;;;;;;27.61;65.39;101256.50;5006182;28;20030;-67
2023/08/19 09:19:45;;;;;;;11.15;10.13;;;;;;;27.71;65.08;101275.38;5006136;28;20452;-67
2023/08/19 09:22:16;;;;;;;14.15;10.07;;;;;;;27.86;64.94;101271.06;5008697;28;20038;-67
2023/08/19 09:24:42;;;;;;;11.73;10.52;;;;;;;27.91;64.76;101271.41;5003703;28;20038;-67
2023/08/19 09:27:07;;;;;;;15.23;10.77;;;;;;;28.04;64.27;101270.09;5002362;28;20322;-66
2023/08/19 09:29:33;;;;;;;17.10;10.48;;;;;;;28.16;63.74;101272.34;5005820;28;20083;-66
2023/08/19 09:31:59;;;;;;;14.70;10.95;;;;;;;28.15;63.12;101283.38;5005059;28;20036;-66
2023/08/19 09:34:24;;;;;;;14.93;11.82;;;;;;;28.13;63.33;101285.44;4970812;28;20044;-66
2023/08/19 09:36:55;;;;;;;12.00;10.77;;;;;;;28.19;63.80;101287.47;4999188;28;20302;-67
2023/08/19 09:39:20;;;;;;;13.95;10.65;;;;;;;28.35;62.77;101286.69;5003766;28;20030;-66
2023/08/19 09:41:45;;;;;;;15.50;10.90;;;;;;;28.78;62.45;101291.00;5003762;28;20432;-66
2023/08/19 09:44:13;;;;;;;14.23;11.68;;;;;;;29.06;61.79;101294.28;5005460;28;20029;-66
2023/08/19 09:46:39;;;;;;;14.32;11.10;;;;;;;29.28;60.67;101300.88;5006052;28;20105;-66
2023/08/19 09:49:04;;;;;;;14.70;11.32;;;;;;;29.56;60.08;101304.06;5001744;28;20120;-66
2023/08/19 09:51:30;;;;;;;16.45;12.30;;;;;;;29.78;59.05;101302.47;5002450;28;20075;-66
2023/08/19 09:53:56;;;;;;;13.27;11.93;;;;;;;29.90;59.12;101314.72;5000903;28;20022;-66
2023/08/19 09:56:24;;;;;;;14.15;12.65;;;;;;;30.03;57.95;101326.91;5009193;28;20018;-66
2023/08/19 09:58:51;;;;;;;19.25;13.90;;;;;;;29.83;58.75;101324.59;5017700;28;20168;-66
2023/08/19 10:01:16;;;;;;;15.48;13.45;;;;;;;29.67;58.88;101335.56;5008853;28;20790;-66
2023/08/19 10:03:43;;;;;;;15.88;12.82;;;;;;;29.53;59.09;101337.09;5007256;28;20184;-66
2023/08/19 10:06:10;;;;;;;15.68;14.07;;;;;;;29.46;59.79;101341.53;5004959;28;20046;-66
2023/08/19 10:08:41;;;;;;;16.55;13.27;;;;;;;29.74;59.77;101342.84;5004985;28;20489;-66
2023/08/19 10:11:07;;;;;;;15.35;13.13;;;;;;;29.71;58.15;101342.38;5001959;28;20025;-66
2023/08/19 10:13:33;;;;;;;13.63;12.23;;;;;;;29.64;58.99;101344.94;5007749;28;20096;-66
2023/08/19 10:16:03;;;;;;;15.00;12.93;;;;;;;29.66;59.01;101345.63;4982546;28;20327;-66
2023/08/19 10:18:32;;;;;;;14.48;12.57;;;;;;;29.60;58.86;101350.91;5007943;28;20041;-66
2023/08/19 10:21:04;;;;;;;17.67;13.23;;;;;;;29.61;59.41;101353.47;5004774;28;20022;-67
2023/08/19 10:23:30;;;;;;;15.45;11.95;;;;;;;29.55;59.64;101348.69;5007976;28;20221;-66
2023/08/19 10:25:56;;;;;;;13.55;11.43;;;;;;;29.64;59.39;101346.81;5005548;28;20037;-66
2023/08/19 10:28:27;;;;;;;13.07;11.27;;;;;;;29.77;59.36;101352.56;5007623;28;20026;-66
2023/08/19 10:31:13;;;;;;;12.82;11.52;;;;;;;30.07;58.52;101366.44;5012856;28;20455;-66
2023/08/19 10:33:44;;;;;;;12.98;11.65;;;;;;;30.11;57.46;101362.34;5013734;28;20037;-66
2023/08/19 10:36:17;;;;;;;14.32;12.63;;;;;;;30.08;57.07;101370.84;5012754;28;20477;-66
2023/08/19 10:38:54;;;;;;;22.48;13.30;;;;;;;30.14;57.44;101373.78;5007463;28;20538;-66
2023/08/19 10:41:24;;;;;;;14.13;12.55;;;;;;;30.22;56.67;101367.44;5011190;28;20072;-66
2023/08/19 10:44:04;;;;;;;12.50;10.63;;;;;;;30.32;57.75;101376.25;5010452;28;20545;-66
2023/08/19 10:46:30;;;;;;;14.35;12.40;;;;;;;30.27;56.75;101372.38;5014075;28;20034;-66
2023/08/19 10:48:56;;;;;;;15.48;11.88;;;;;;;30.26;57.70;101395.19;5017495;28;20484;-66
2023/08/19 10:52:06;;;;;;;13.60;11.70;;;;;;;30.13;57.07;101402.09;5008905;28;20026;-66
2023/08/19 10:54:42;;;;;;;12.10;10.88;;;;;;;29.71;57.90;101402.34;5013827;28;20108;-66
2023/08/19 10:57:14;;;;;;;14.52;11.48;;;;;;;29.49;57.89;101407.44;5013214;28;20409;-66
2023/08/19 10:59:45;;;;;;;12.73;10.75;;;;;;;29.35;59.59;101410.00;5005624;28;20088;-67
2023/08/19 11:02:11;;;;;;;13.43;12.02;;;;;;;29.23;58.99;101414.91;4997460;28;20026;-66
2023/08/19 11:04:46;;;;;;;14.60;12.95;;;;;;;29.05;60.18;101419.66;5011950;28;20116;-66
2023/08/19 11:07:12;;;;;;;14.07;11.77;;;;;;;28.90;59.82;101420.28;5012015;28;20493;-66
2023/08/19 11:09:41;;;;;;;16.15;12.60;;;;;;;28.81;60.67;101426.75;5004195;28;20032;-66